createdAt,value
2023-02-23T00:12:03.313Z,141.61
2023-02-23T00:55:13.244Z,175.63
2023-02-23T00:56:13.402Z,176.38
2023-02-23T00:57:13.713Z,176.48
2023-02-23T00:58:13.894Z,173.83
2023-02-23T00:59:14.248Z,173.67
2023-02-23T01:00:14.414Z,173.02
2023-02-23T01:01:14.764Z,171.97
2023-02-23T01:02:14.930Z,171.80
2023-02-23T01:03:15.172Z,170.79
2023-02-23T01:04:15.441Z,168.56
2023-02-23T01:05:15.679Z,169.20
2023-02-23T01:06:15.963Z,169.68
2023-02-23T01:07:16.164Z,168.66
2023-02-23T01:08:16.396Z,167.69
2023-02-23T01:09:16.638Z,166.95
2023-02-23T01:10:16.888Z,166.59
2023-02-23T01:11:17.379Z,165.34
2023-02-23T01:12:17.153Z,166.08
2023-02-23T01:13:17.240Z,169.19
2023-02-23T01:14:17.341Z,171.15
2023-02-23T01:15:17.424Z,172.96
2023-02-23T01:16:17.515Z,177.13
2023-02-23T01:17:17.613Z,184.17
2023-02-23T01:18:17.713Z,190.18
2023-02-23T01:19:17.822Z,195.81
2023-02-23T01:20:17.959Z,200.26
2023-02-23T01:21:18.424Z,204.52
2023-02-23T01:22:18.169Z,206.88
2023-02-23T01:23:20.255Z,208.89
2023-02-23T01:24:18.374Z,209.61
2023-02-23T01:25:18.461Z,211.18
2023-02-23T01:26:18.531Z,212.20
2023-02-23T01:27:18.600Z,213.61
2023-02-23T01:28:18.681Z,214.38
2023-02-23T01:29:18.737Z,219.57
2023-02-23T01:30:18.807Z,221.06
2023-02-23T01:31:19.166Z,220.21
2023-02-23T01:32:19.054Z,215.23
2023-02-23T01:33:19.046Z,215.19
2023-02-23T01:34:19.111Z,214.78
2023-02-23T01:35:19.185Z,215.77
2023-02-23T01:36:19.254Z,214.11
2023-02-23T01:37:19.330Z,212.78
2023-02-23T01:38:19.384Z,211.36
2023-02-23T01:39:19.466Z,210.68
2023-02-23T01:40:19.540Z,208.67
2023-02-23T01:41:19.927Z,207.22
2023-02-23T01:42:19.675Z,208.92
2023-02-23T01:43:19.738Z,209.50
2023-02-23T01:44:19.801Z,210.91
2023-02-23T01:45:19.854Z,211.67
2023-02-23T01:46:19.957Z,212.63
2023-02-23T01:47:19.960Z,212.35
2023-02-23T01:48:20.024Z,211.36
2023-02-23T01:49:20.119Z,212.35
2023-02-23T01:50:20.129Z,210.61
2023-02-23T01:51:20.365Z,207.43
2023-02-23T01:52:20.229Z,204.17
2023-02-23T01:53:20.290Z,203.86
2023-02-23T01:54:20.329Z,201.09
2023-02-23T01:55:20.380Z,200.61
2023-02-23T01:56:20.442Z,202.77
2023-02-23T01:57:20.518Z,201.09
2023-02-23T01:58:20.542Z,198.79
2023-02-23T01:59:20.579Z,195.00
2023-02-23T02:32:23.190Z,212.90
2023-02-23T02:33:23.156Z,204.44
2023-02-23T02:34:23.382Z,202.77
2023-02-23T02:35:23.632Z,197.17
2023-02-23T02:36:23.909Z,192.53
2023-02-23T02:37:24.548Z,190.60
2023-02-23T02:38:24.265Z,189.25
2023-02-23T02:39:24.358Z,190.38
2023-02-23T02:40:24.425Z,191.54
2023-02-23T02:41:24.531Z,191.81
2023-02-23T02:42:24.641Z,191.27
2023-02-23T02:43:24.769Z,190.65
2023-02-23T02:44:24.915Z,191.41
2023-02-23T02:45:25.052Z,191.98
2023-02-23T02:46:25.198Z,191.82
2023-02-23T02:47:25.285Z,195.47
2023-02-23T02:48:25.377Z,199.19
2023-02-23T02:49:25.465Z,201.42
2023-02-23T02:50:25.585Z,203.62
2023-02-23T02:51:25.687Z,207.05
2023-02-23T02:52:25.801Z,210.23
2023-02-23T02:53:25.899Z,213.21
2023-02-23T02:54:26.047Z,215.49
2023-02-23T02:55:26.108Z,216.25
2023-02-23T02:56:26.191Z,211.90
2023-02-23T02:57:26.345Z,206.44
2023-02-23T02:58:26.361Z,207.08
2023-02-23T02:59:26.450Z,210.59
2023-02-23T03:00:26.530Z,212.16
2023-02-23T03:01:26.651Z,212.88
2023-02-23T03:02:26.713Z,215.34
2023-02-23T03:03:26.782Z,211.05
2023-02-23T03:04:26.881Z,208.37
2023-02-23T03:05:27.035Z,207.89
2023-02-23T03:06:27.056Z,209.11
2023-02-23T03:07:27.122Z,210.25
2023-02-23T03:08:27.201Z,211.21
2023-02-23T03:09:27.270Z,212.94
2023-02-23T03:10:27.346Z,215.32
2023-02-23T03:11:27.429Z,217.33
2023-02-23T03:12:27.546Z,218.21
2023-02-23T03:13:27.678Z,221.74
2023-02-23T03:14:27.813Z,224.27
2023-02-23T03:15:27.934Z,225.54
2023-02-23T03:16:28.064Z,227.70
2023-02-23T03:17:28.200Z,227.48
2023-02-23T03:18:28.319Z,229.32
2023-02-23T03:19:28.429Z,223.70
2023-02-23T03:20:28.558Z,226.03
2023-02-23T03:21:28.687Z,229.36
2023-02-23T03:22:28.813Z,231.02
2023-02-23T03:23:28.940Z,220.67
2023-02-23T03:24:29.077Z,199.14
2023-02-23T04:03:33.222Z,214.34
2023-02-23T04:04:33.273Z,217.35
2023-02-23T04:05:33.366Z,223.67
2023-02-23T04:06:33.492Z,228.87
2023-02-23T04:07:33.590Z,229.79
2023-02-23T04:08:33.698Z,228.17
2023-02-23T04:13:34.283Z,236.68
2023-02-23T04:14:34.401Z,241.26
2023-02-23T04:15:34.521Z,240.72
2023-02-23T04:16:34.682Z,240.25
2023-02-23T04:17:34.775Z,240.99
2023-02-23T04:18:34.894Z,241.82
2023-02-23T04:19:35.005Z,240.44
2023-02-23T04:20:35.240Z,241.18
2023-02-23T04:21:35.454Z,241.94
2023-02-23T04:22:35.714Z,241.37
2023-02-23T04:54:43.368Z,133.08
2023-02-23T04:55:43.576Z,132.34
2023-02-23T04:56:43.855Z,131.12
2023-02-23T04:57:44.088Z,135.08
2023-02-23T04:58:44.224Z,136.04
2023-02-23T04:59:44.537Z,136.46
2023-02-23T05:00:44.748Z,136.24
2023-02-23T05:01:44.981Z,132.35
2023-02-23T05:02:45.188Z,128.64
2023-02-23T05:03:45.409Z,129.24
2023-02-23T05:04:45.663Z,132.14
2023-02-23T05:05:45.880Z,130.65
2023-02-23T05:06:46.138Z,124.38
2023-02-23T05:07:46.410Z,121.61
2023-02-23T05:08:46.616Z,124.31
2023-02-23T05:09:47.588Z,124.49
2023-02-23T05:10:46.931Z,123.28
2023-02-23T05:11:47.015Z,119.57
2023-02-23T05:12:47.115Z,120.84
2023-02-23T05:13:47.215Z,120.94
2023-02-23T05:14:47.298Z,120.11
2023-02-23T05:15:47.405Z,118.79
2023-02-23T05:16:47.465Z,119.75
2023-02-23T05:17:47.560Z,121.51
2023-02-23T05:18:47.656Z,119.71
2023-02-23T05:19:47.746Z,119.15
2023-02-23T05:20:47.831Z,118.39
2023-02-23T05:21:47.903Z,118.81
2023-02-23T05:22:47.989Z,120.29
2023-02-23T05:23:48.081Z,119.69
2023-02-23T05:24:48.160Z,119.70
2023-02-23T05:25:48.256Z,124.51
2023-02-23T05:26:48.372Z,125.18
2023-02-23T05:27:48.478Z,125.48
2023-02-23T05:28:48.579Z,129.41
2023-02-23T05:29:48.652Z,134.72
2023-02-23T05:30:48.912Z,137.06
2023-02-23T05:31:49.053Z,136.64
2023-02-23T05:32:48.998Z,135.83
2023-02-23T05:33:49.100Z,135.94
2023-02-23T05:34:49.181Z,134.86
2023-02-23T05:35:49.263Z,135.17
2023-02-23T05:36:49.351Z,133.00
2023-02-23T05:37:49.436Z,133.68
2023-02-23T05:38:49.515Z,135.19
2023-02-23T05:42:49.829Z,140.65
2023-02-23T06:14:53.145Z,199.68
2023-02-23T06:15:53.284Z,194.25
2023-02-23T06:16:53.330Z,179.33
2023-02-23T06:17:54.037Z,172.90
2023-02-23T06:18:53.437Z,165.55
2023-02-23T06:19:53.538Z,160.48
2023-02-23T06:20:53.616Z,165.73
2023-02-23T06:21:53.779Z,178.31
2023-02-23T06:23:53.837Z,185.39
2023-02-23T06:24:53.918Z,190.40
2023-02-23T06:25:53.969Z,194.46
2023-02-23T06:26:54.054Z,202.22
2023-02-23T06:27:54.153Z,207.79
2023-02-23T06:28:54.264Z,205.83
2023-02-23T06:29:54.393Z,208.85
2023-02-23T06:30:54.634Z,208.91
2023-02-23T06:37:55.309Z,235.30
2023-02-23T07:41:03.293Z,169.79
2023-02-23T07:42:03.510Z,168.17
2023-02-23T07:43:03.760Z,167.95
2023-02-23T07:44:04.002Z,165.64
2023-02-23T07:45:04.262Z,167.94
2023-02-23T07:46:04.541Z,169.28
2023-02-23T07:47:04.744Z,163.82
2023-02-23T07:48:05.052Z,160.37
2023-02-23T07:49:05.092Z,151.75
2023-02-23T07:50:05.205Z,152.01
2023-02-23T07:51:05.312Z,148.75
2023-02-23T07:52:05.416Z,146.24
2023-02-23T07:53:05.528Z,145.81
2023-02-23T07:54:05.628Z,144.59
2023-02-23T07:55:05.724Z,146.64
2023-02-23T07:56:05.829Z,145.22
2023-02-23T07:57:05.908Z,144.58
2023-02-23T07:58:06.006Z,139.60
2023-02-23T07:59:06.085Z,135.11
2023-02-23T08:00:06.205Z,134.20
2023-02-23T08:01:06.344Z,141.74
2023-02-23T08:02:06.341Z,148.80
2023-02-23T08:04:06.524Z,157.92
2023-02-23T08:05:06.578Z,153.70
2023-02-23T09:05:14.690Z,168.56
2023-02-23T09:11:13.118Z,166.27
2023-02-23T09:12:13.123Z,172.91
2023-02-23T09:13:13.211Z,176.75
2023-02-23T09:14:13.294Z,178.82
2023-02-23T09:15:13.404Z,181.14
2023-02-23T09:16:13.516Z,181.47
2023-02-23T09:17:13.527Z,181.35
2023-02-23T09:18:13.610Z,183.92
2023-02-23T09:19:13.698Z,186.96
2023-02-23T09:20:13.770Z,190.57
2023-02-23T09:21:13.830Z,190.29
2023-02-23T09:22:13.934Z,192.90
2023-02-23T09:23:13.957Z,193.67
2023-02-23T09:24:14.053Z,193.37
2023-02-23T09:25:14.198Z,184.12
2023-02-23T09:26:14.139Z,183.37
2023-02-23T09:27:14.302Z,183.60
2023-02-23T09:28:14.558Z,188.06
2023-02-23T09:29:14.783Z,187.68
2023-02-23T10:38:15.817Z,112.24
2023-02-23T10:39:15.796Z,111.45
2023-02-23T10:40:16.648Z,115.55
2023-02-23T10:41:15.783Z,122.51
2023-02-23T10:42:15.907Z,128.87
2023-02-23T10:43:15.831Z,132.32
2023-02-23T10:44:17.215Z,130.97
2023-02-23T10:45:16.043Z,129.49
2023-02-23T10:46:16.108Z,132.71
2023-02-23T10:47:17.048Z,137.42
2023-02-23T10:48:16.211Z,144.34
2023-02-23T10:49:16.182Z,148.78
2023-02-23T10:50:16.203Z,153.06
2023-02-23T10:51:16.458Z,153.73
2023-02-23T11:07:19.918Z,166.68
2023-02-23T11:08:20.145Z,165.86
2023-02-23T11:09:21.608Z,169.58
2023-02-23T11:10:20.438Z,173.61
2023-02-23T11:11:20.709Z,176.91
2023-02-23T11:12:20.642Z,176.65
2023-02-23T11:13:20.452Z,172.64
2023-02-23T11:16:20.521Z,177.57
2023-02-23T11:18:20.407Z,174.30
2023-02-23T11:53:19.813Z,98.03
2023-02-23T12:00:20.281Z,111.85
2023-02-23T12:15:23.401Z,112.19
2023-02-23T12:16:23.371Z,109.97
2023-02-23T12:17:23.465Z,102.57
2023-02-23T12:18:23.601Z,99.93
2023-02-23T12:19:23.894Z,98.69
2023-02-23T12:20:24.139Z,99.41
2023-02-23T12:21:24.293Z,99.35
2023-02-23T12:22:24.480Z,93.01
2023-02-23T12:23:24.665Z,89.61
2023-02-23T12:24:24.841Z,89.52
2023-02-23T12:25:25.004Z,91.96
2023-02-23T12:26:25.209Z,88.31
2023-02-23T12:27:25.367Z,89.72
2023-02-23T12:28:25.546Z,87.78
2023-02-23T12:29:25.715Z,88.59
2023-02-23T12:30:25.900Z,87.10
2023-02-23T12:31:26.087Z,72.39
2023-02-23T12:32:26.315Z,58.04
2023-02-23T13:12:33.228Z,72.93
2023-02-23T13:13:33.312Z,67.38
2023-02-23T13:14:33.503Z,59.69
2023-02-23T13:15:33.645Z,63.85
2023-02-23T13:16:33.900Z,63.90
2023-02-23T13:17:33.964Z,64.01
2023-02-23T13:18:34.142Z,60.94
2023-02-23T13:19:34.323Z,58.23
2023-02-23T13:20:34.504Z,66.61
2023-02-23T13:21:34.677Z,69.58
2023-02-23T13:22:34.874Z,67.63
2023-02-23T13:23:34.954Z,66.88
2023-02-23T13:24:35.148Z,65.85
2023-02-23T13:25:35.346Z,67.65
2023-02-23T13:26:35.545Z,62.08
2023-02-23T13:27:35.916Z,62.46
2023-02-23T13:28:35.992Z,65.72
2023-02-23T13:29:36.182Z,65.07
2023-02-23T13:30:36.468Z,65.55
2023-02-23T13:31:36.779Z,67.99
2023-02-23T13:32:36.804Z,63.60
2023-02-23T13:33:43.864Z,71.90
2023-02-23T13:34:37.959Z,68.39
2023-02-23T13:35:36.924Z,66.79
2023-02-23T13:36:36.888Z,63.11
2023-02-23T13:37:36.867Z,60.35
2023-02-23T13:38:36.851Z,59.95
2023-02-23T13:39:36.845Z,61.29
2023-02-23T13:40:36.850Z,63.59
2023-02-23T13:41:36.773Z,72.62
2023-02-23T13:42:36.750Z,69.60
2023-02-23T13:43:36.729Z,67.59
2023-02-23T13:44:36.702Z,70.00
2023-02-23T13:45:36.656Z,69.38
2023-02-23T13:46:36.616Z,67.23
2023-02-23T13:47:36.598Z,67.10
2023-02-23T13:48:41.774Z,69.67
2023-02-23T13:49:37.488Z,68.17
2023-02-23T13:50:36.462Z,65.45
2023-02-23T13:51:36.415Z,68.23
2023-02-23T13:52:36.381Z,71.23
2023-02-23T13:53:36.335Z,74.54
2023-02-23T13:54:36.303Z,77.34
2023-02-23T13:55:48.216Z,81.68
2023-02-23T13:56:37.204Z,82.01
2023-02-23T13:57:36.160Z,82.35
2023-02-23T13:58:36.103Z,81.02
2023-02-23T13:59:36.070Z,76.24
2023-02-23T14:00:36.015Z,80.64
2023-02-23T14:01:36.022Z,83.91
2023-02-23T14:02:36.043Z,78.73
2023-02-23T14:03:36.638Z,98.75
2023-02-23T14:04:35.871Z,100.78
2023-02-23T14:05:35.853Z,93.16
2023-02-23T14:06:35.874Z,82.54
2023-02-23T14:07:35.875Z,69.18
2023-02-23T14:08:35.886Z,71.36
2023-02-23T14:09:35.903Z,76.13
2023-02-23T14:10:35.930Z,74.39
2023-02-23T14:11:35.950Z,71.05
2023-02-23T14:12:35.969Z,66.30
2023-02-23T14:13:35.970Z,61.93
2023-02-23T14:14:35.985Z,62.39
2023-02-23T14:15:36.002Z,61.07
2023-02-23T14:16:36.066Z,63.65
2023-02-23T14:17:36.051Z,63.15
2023-02-23T14:18:36.075Z,66.46
2023-02-23T14:19:36.092Z,67.92
2023-02-23T14:20:36.091Z,71.95
2023-02-23T14:21:36.131Z,68.34
2023-02-23T14:22:36.120Z,68.44
2023-02-23T14:23:36.133Z,70.66
2023-02-23T14:24:36.187Z,68.24
2023-02-23T14:25:36.385Z,66.27
2023-02-23T14:26:36.632Z,69.98
2023-02-23T14:27:41.529Z,75.92
2023-02-23T14:28:37.751Z,75.95
2023-02-23T14:29:36.705Z,76.36
2023-02-23T14:30:36.690Z,79.49
2023-02-23T14:31:36.745Z,80.92
2023-02-23T14:32:36.740Z,81.43
2023-02-23T14:33:36.513Z,81.36
2023-02-23T14:34:36.456Z,79.47
2023-02-23T14:35:36.411Z,81.18
2023-02-23T14:36:36.358Z,81.84
2023-02-23T14:37:36.316Z,80.30
2023-02-23T14:39:36.331Z,79.71
2023-02-23T15:13:38.511Z,68.70
2023-02-23T15:14:38.512Z,72.27
2023-02-23T15:15:38.493Z,77.93
2023-02-23T15:16:38.500Z,75.76
2023-02-23T15:17:38.481Z,77.42
2023-02-23T15:18:38.577Z,72.74
2023-02-23T15:19:38.512Z,73.43
2023-02-23T15:20:38.417Z,71.00
2023-02-23T16:19:41.151Z,115.37
2023-02-23T16:20:40.943Z,116.83
2023-02-23T16:21:40.973Z,116.32
2023-02-23T16:22:41.002Z,114.76
2023-02-23T16:23:41.056Z,117.31
2023-02-23T16:24:41.103Z,122.08
2023-02-23T16:25:41.138Z,123.22
2023-02-23T16:26:41.153Z,117.40
2023-02-23T16:27:41.169Z,118.69
2023-02-23T16:28:41.208Z,120.90
2023-02-23T16:29:41.249Z,120.85
2023-02-23T16:30:41.274Z,124.74
2023-02-23T16:31:43.279Z,126.33
2023-02-23T16:32:41.464Z,125.64
2023-02-23T16:33:41.336Z,129.49
2023-02-23T16:34:41.325Z,133.36
2023-02-23T16:35:41.345Z,139.27
2023-02-23T16:36:41.343Z,136.30
2023-02-23T16:37:41.340Z,136.01
2023-02-23T16:38:41.346Z,133.88
2023-02-23T16:39:41.357Z,135.41
2023-02-23T16:40:41.364Z,129.15
2023-02-23T16:41:41.383Z,127.47
2023-02-23T16:42:41.434Z,116.67
2023-02-23T16:43:41.473Z,113.37
2023-02-23T16:44:43.817Z,109.99
2023-02-23T16:45:41.663Z,111.75
2023-02-23T18:08:45.937Z,180.52
2023-02-23T18:10:45.941Z,192.52
2023-02-23T18:11:45.945Z,195.28
2023-02-23T18:12:45.969Z,198.49
2023-02-23T18:13:47.923Z,196.47
2023-02-23T18:14:45.963Z,193.51
2023-02-23T18:15:46.001Z,192.54
2023-02-23T18:17:46.006Z,196.69
2023-02-23T18:19:47.802Z,199.25
2023-02-23T18:20:46.035Z,198.73
2023-02-23T18:21:46.055Z,212.45
2023-02-23T18:22:46.076Z,215.97
2023-02-23T18:23:46.120Z,217.21
2023-02-23T18:24:46.143Z,221.23
2023-02-23T18:25:46.163Z,224.87
2023-02-23T18:26:46.208Z,223.20
2023-02-23T18:27:46.215Z,223.38
2023-02-23T18:50:46.873Z,239.06
2023-02-23T19:54:56.046Z,247.45
2023-02-23T19:55:56.305Z,249.44
2023-02-23T19:56:57.725Z,244.62
2023-02-23T19:57:56.579Z,238.16
2023-02-23T19:58:56.609Z,234.53
2023-02-23T19:59:56.683Z,232.97
2023-02-23T20:00:56.730Z,240.41
2023-02-23T20:01:56.815Z,254.96
2023-02-23T20:02:57.686Z,258.92
2023-02-23T20:03:56.875Z,255.79
2023-02-23T20:04:56.951Z,248.40
2023-02-23T20:05:56.958Z,244.72
2023-02-23T20:06:57.011Z,244.64
2023-02-23T20:07:57.054Z,243.80
2023-02-23T20:08:57.110Z,243.59
2023-02-23T20:09:57.136Z,243.46
2023-02-23T20:10:57.176Z,242.62
2023-02-23T20:11:57.231Z,241.75
2023-02-23T20:12:57.284Z,243.98
2023-02-23T20:13:57.313Z,241.56
2023-02-23T20:14:57.350Z,241.22
2023-02-23T20:15:57.389Z,242.31
2023-02-23T20:16:57.461Z,240.72
2023-02-23T20:17:57.480Z,236.51
2023-02-23T20:18:57.587Z,239.06
2023-02-23T20:19:57.606Z,241.20
2023-02-23T20:20:57.655Z,241.51
2023-02-23T20:21:57.767Z,242.49
2023-02-23T20:22:57.753Z,245.50
2023-02-23T20:23:57.979Z,245.91
2023-02-23T20:24:58.142Z,246.16
2023-02-23T20:25:58.324Z,240.55
2023-02-23T20:26:58.501Z,240.68
2023-02-23T20:27:58.685Z,244.22
2023-02-23T20:28:58.862Z,243.49
2023-02-23T20:29:59.081Z,245.44
2023-02-23T20:30:59.333Z,246.86
2023-02-23T20:31:59.549Z,243.07
2023-02-23T20:32:59.666Z,242.20
2023-02-23T20:33:59.837Z,236.99
2023-02-23T20:35:00.014Z,237.37
2023-02-23T20:36:00.254Z,237.63
2023-02-23T20:37:00.410Z,236.73
2023-02-23T20:38:00.626Z,236.98
2023-02-23T20:39:00.813Z,240.18
2023-02-23T20:40:01.013Z,242.11
2023-02-23T20:41:01.219Z,245.81
2023-02-23T20:42:01.420Z,248.17
2023-02-23T20:43:01.610Z,247.22
2023-02-23T20:44:01.876Z,246.95
2023-02-23T20:45:01.998Z,250.00
2023-02-23T20:46:02.284Z,250.00
2023-02-23T20:47:02.422Z,250.00
2023-02-23T20:48:02.627Z,250.04
2023-02-23T20:49:02.828Z,250.87
2023-02-23T20:50:03.034Z,249.09
2023-02-23T20:51:03.259Z,246.82
2023-02-23T20:52:03.449Z,249.30
2023-02-23T20:53:03.646Z,250.00
2023-02-23T20:54:03.850Z,246.44
2023-02-23T20:55:04.056Z,245.56
2023-02-23T20:56:04.298Z,245.78
2023-02-23T20:57:05.273Z,250.58
2023-02-23T20:58:04.541Z,248.50
2023-02-23T20:59:04.610Z,245.85
2023-02-23T21:00:04.674Z,245.72
2023-02-23T21:01:04.785Z,240.07
2023-02-23T21:02:04.834Z,236.39
2023-02-23T21:03:04.897Z,234.44
2023-02-23T21:04:05.005Z,232.54
2023-02-23T21:05:05.051Z,228.98
2023-02-23T21:06:05.127Z,226.23
2023-02-23T21:07:05.208Z,222.43
2023-02-23T21:08:05.774Z,218.81
2023-02-23T21:09:05.381Z,220.08
2023-02-23T21:10:05.438Z,225.13
2023-02-23T21:11:05.507Z,232.01
2023-02-23T21:12:05.579Z,236.43
2023-02-23T21:13:05.658Z,236.13
2023-02-23T21:14:05.723Z,237.47
2023-02-23T21:15:05.802Z,237.85
2023-02-23T21:16:05.962Z,231.41
2023-02-23T21:17:05.960Z,224.87
2023-02-23T21:18:06.033Z,216.76
2023-02-23T21:19:06.130Z,212.58
2023-02-23T21:20:06.196Z,209.41
2023-02-23T21:21:06.275Z,213.04
2023-02-23T21:22:06.366Z,216.58
2023-02-23T21:23:06.451Z,216.48
2023-02-23T21:24:06.540Z,218.96
2023-02-23T21:25:06.621Z,220.96
2023-02-23T21:26:06.700Z,226.03
2023-02-23T21:27:06.780Z,227.30
2023-02-23T21:28:06.887Z,227.39
2023-02-23T21:29:06.968Z,223.70
2023-02-23T21:30:09.197Z,220.97
2023-02-23T21:31:07.119Z,221.62
2023-02-23T21:32:07.242Z,220.58
2023-02-23T21:33:07.326Z,218.35
2023-02-23T21:34:07.214Z,218.67
2023-02-23T21:35:07.290Z,221.56
2023-02-23T21:36:07.291Z,224.48
2023-02-23T21:37:07.317Z,224.44
2023-02-23T21:38:07.367Z,219.03
2023-02-23T21:39:07.447Z,210.32
2023-02-23T21:40:07.454Z,204.93
2023-02-23T21:41:07.506Z,211.77
2023-02-23T21:42:07.544Z,217.83
2023-02-23T21:43:07.589Z,217.91
2023-02-23T21:44:07.629Z,218.34
2023-02-23T21:45:07.694Z,225.60
2023-02-23T21:46:07.792Z,230.94
2023-02-23T21:47:07.781Z,228.72
2023-02-23T21:48:07.821Z,220.92
2023-02-23T21:49:07.874Z,217.58
2023-02-23T21:50:07.917Z,215.33
2023-02-23T21:51:07.976Z,218.02
2023-02-23T21:52:08.007Z,219.28
2023-02-23T21:53:08.041Z,214.70
2023-02-23T21:54:08.790Z,212.31
2023-02-23T21:55:19.598Z,210.94
2023-02-23T21:56:09.188Z,211.02
2023-02-23T21:57:08.217Z,211.37
2023-02-23T21:58:08.261Z,212.20
2023-02-23T21:59:08.368Z,216.50
2023-02-23T22:00:08.360Z,221.53
2023-02-23T22:01:08.401Z,218.77
2023-02-23T22:02:08.506Z,214.77
2023-02-23T22:03:08.599Z,213.97
2023-02-23T22:04:08.548Z,217.66
2023-02-23T22:05:08.800Z,217.55
2023-02-23T22:06:08.638Z,216.08
2023-02-23T22:07:08.665Z,216.62
2023-02-23T22:08:08.707Z,218.35
2023-02-23T22:09:08.758Z,222.34
2023-02-23T22:10:08.864Z,221.07
2023-02-23T22:11:08.938Z,221.72
2023-02-23T22:12:09.026Z,226.16
2023-02-23T22:13:09.114Z,235.90
2023-02-23T22:14:09.197Z,232.23
2023-02-23T22:15:09.308Z,225.69
2023-02-23T22:16:09.406Z,226.86
2023-02-23T22:17:09.465Z,226.82
2023-02-23T22:18:09.561Z,227.72
2023-02-23T22:19:10.333Z,224.43
2023-02-23T22:20:09.753Z,219.59
2023-02-23T22:21:09.841Z,218.38
2023-02-23T22:22:09.956Z,221.88
2023-02-23T22:23:10.090Z,225.12
2023-02-23T22:24:10.182Z,227.55
2023-02-23T22:25:10.307Z,224.82
2023-02-23T22:26:10.433Z,225.20
2023-02-23T22:27:10.550Z,227.26
2023-02-23T22:28:10.644Z,230.22
2023-02-23T22:29:10.773Z,229.37
2023-02-23T22:30:10.865Z,225.46
2023-02-23T22:31:11.088Z,215.05
2023-02-23T22:32:11.339Z,206.46
2023-02-23T22:33:11.424Z,208.11
2023-02-23T22:34:11.361Z,204.80
2023-02-23T22:35:11.483Z,206.59
2023-02-23T22:36:11.598Z,204.29
2023-02-23T22:37:11.718Z,205.25
2023-02-23T23:14:15.972Z,249.06
2023-02-23T23:15:16.085Z,243.77
2023-02-23T23:16:29.299Z,237.31
2023-02-23T23:17:17.298Z,237.52
2023-02-23T23:18:16.321Z,238.53
2023-02-23T23:19:16.375Z,239.55
2023-02-23T23:20:16.446Z,239.46
2023-02-23T23:21:16.508Z,241.87
2023-02-23T23:22:16.629Z,242.58
2023-02-23T23:23:16.648Z,242.60
2023-02-23T23:24:16.723Z,245.97
2023-02-23T23:25:16.786Z,243.96
2023-02-23T23:26:16.862Z,238.86
2023-02-23T23:27:16.934Z,237.46
2023-02-23T23:28:17.009Z,236.24
2023-02-23T23:29:17.078Z,236.63
2023-02-23T23:30:17.155Z,236.48
2023-02-23T23:31:17.420Z,234.93
2023-02-23T23:32:17.571Z,233.77
2023-02-23T23:33:17.480Z,234.49
